sensor_id;sensor_type;location;lat;lon;timestamp;pressure;altitude;pressure_sealevel;temperature;humidity
38718;BME280;24468;52.128;9.278;2023-06-24T00:01:26;101529.59;;;17.88;100.00
38718;BME280;24468;52.128;9.278;2023-06-24T00:03:52;101536.47;;;17.95;100.00
38718;BME280;24468;52.128;9.278;2023-06-24T00:06:22;101524.47;;;18.13;100.00
38718;BME280;24468;52.128;9.278;2023-06-24T00:08:52;101532.47;;;18.16;100.00
38718;BME280;24468;52.128;9.278;2023-06-24T00:11:18;101530.75;;;17.99;100.00
38718;BME280;24468;52.128;9.278;2023-06-24T00:13:44;101533.50;;;17.52;100.00
38718;BME280;24468;52.128;9.278;2023-06-24T00:16:10;101531.38;;;17.57;100.00
38718;BME280;24468;52.128;9.278;2023-06-24T00:18:37;101525.13;;;17.55;100.00
38718;BME280;24468;52.128;9.278;2023-06-24T00:21:06;101532.44;;;17.39;100.00
38718;BME280;24468;52.128;9.278;2023-06-24T00:23:31;101527.59;;;17.12;100.00
38718;BME280;24468;52.128;9.278;2023-06-24T00:26:00;101525.28;;;17.04;100.00
38718;BME280;24468;52.128;9.278;2023-06-24T00:28:26;101537.47;;;16.81;100.00
38718;BME280;24468;52.128;9.278;2023-06-24T00:30:52;101541.22;;;16.61;100.00
38718;BME280;24468;52.128;9.278;2023-06-24T00:33:18;101537.97;;;16.55;100.00
38718;BME280;24468;52.128;9.278;2023-06-24T00:35:45;101538.34;;;16.64;100.00
38718;BME280;24468;52.128;9.278;2023-06-24T00:38:10;101538.19;;;16.67;100.00
38718;BME280;24468;52.128;9.278;2023-06-24T00:40:37;101547.88;;;16.56;100.00
38718;BME280;24468;52.128;9.278;2023-06-24T00:43:03;101545.50;;;16.50;100.00
38718;BME280;24468;52.128;9.278;2023-06-24T00:45:30;101541.56;;;16.55;100.00
38718;BME280;24468;52.128;9.278;2023-06-24T00:47:56;101543.66;;;16.50;100.00
38718;BME280;24468;52.128;9.278;2023-06-24T00:50:22;101560.88;;;16.51;100.00
38718;BME280;24468;52.128;9.278;2023-06-24T00:52:48;101553.84;;;16.29;100.00
38718;BME280;24468;52.128;9.278;2023-06-24T00:55:16;101552.06;;;16.11;100.00
38718;BME280;24468;52.128;9.278;2023-06-24T00:57:44;101552.47;;;16.03;100.00
38718;BME280;24468;52.128;9.278;2023-06-24T01:00:11;101544.41;;;16.19;100.00
38718;BME280;24468;52.128;9.278;2023-06-24T01:02:43;101552.94;;;16.11;100.00
38718;BME280;24468;52.128;9.278;2023-06-24T01:05:09;101543.75;;;16.14;100.00
38718;BME280;24468;52.128;9.278;2023-06-24T01:07:37;101544.13;;;15.89;100.00
38718;BME280;24468;52.128;9.278;2023-06-24T01:10:04;101542.47;;;15.48;100.00
38718;BME280;24468;52.128;9.278;2023-06-24T01:12:38;101553.50;;;16.00;100.00
38718;BME280;24468;52.128;9.278;2023-06-24T01:15:08;101557.44;;;16.12;100.00
38718;BME280;24468;52.128;9.278;2023-06-24T01:17:51;101556.59;;;15.93;100.00
38718;BME280;24468;52.128;9.278;2023-06-24T01:26:20;101555.56;;;15.78;100.00
38718;BME280;24468;52.128;9.278;2023-06-24T01:34:48;101559.38;;;15.74;100.00
38718;BME280;24468;52.128;9.278;2023-06-24T01:40:18;101570.31;;;15.53;100.00
38718;BME280;24468;52.128;9.278;2023-06-24T01:42:46;101572.03;;;15.37;100.00
38718;BME280;24468;52.128;9.278;2023-06-24T01:45:16;101574.59;;;15.40;100.00
38718;BME280;24468;52.128;9.278;2023-06-24T01:47:47;101572.91;;;15.38;100.00
38718;BME280;24468;52.128;9.278;2023-06-24T01:50:15;101566.53;;;15.39;100.00
38718;BME280;24468;52.128;9.278;2023-06-24T01:52:44;101572.38;;;15.48;100.00
38718;BME280;24468;52.128;9.278;2023-06-24T01:55:16;101583.72;;;15.39;100.00
38718;BME280;24468;52.128;9.278;2023-06-24T01:57:44;101585.41;;;15.23;100.00
38718;BME280;24468;52.128;9.278;2023-06-24T02:00:12;101594.41;;;15.04;100.00
38718;BME280;24468;52.128;9.278;2023-06-24T02:02:38;101586.47;;;15.19;100.00
38718;BME280;24468;52.128;9.278;2023-06-24T02:05:05;101582.19;;;15.33;100.00
38718;BME280;24468;52.128;9.278;2023-06-24T02:07:32;101580.63;;;15.28;100.00
38718;BME280;24468;52.128;9.278;2023-06-24T02:10:00;101584.06;;;15.12;100.00
38718;BME280;24468;52.128;9.278;2023-06-24T02:12:28;101589.50;;;15.12;100.00
38718;BME280;24468;52.128;9.278;2023-06-24T02:14:54;101584.78;;;15.16;100.00
38718;BME280;24468;52.128;9.278;2023-06-24T02:17:21;101587.44;;;15.18;100.00
38718;BME280;24468;52.128;9.278;2023-06-24T02:19:50;101593.56;;;15.23;100.00
38718;BME280;24468;52.128;9.278;2023-06-24T02:22:17;101599.19;;;15.18;100.00
38718;BME280;24468;52.128;9.278;2023-06-24T02:24:43;101590.75;;;15.24;100.00
38718;BME280;24468;52.128;9.278;2023-06-24T02:27:10;101587.09;;;15.25;100.00
38718;BME280;24468;52.128;9.278;2023-06-24T02:29:37;101584.63;;;15.19;100.00
38718;BME280;24468;52.128;9.278;2023-06-24T02:32:05;101577.81;;;15.29;100.00
38718;BME280;24468;52.128;9.278;2023-06-24T02:34:31;101587.75;;;15.30;100.00
38718;BME280;24468;52.128;9.278;2023-06-24T02:36:56;101589.44;;;15.14;100.00
38718;BME280;24468;52.128;9.278;2023-06-24T02:39:22;101584.03;;;15.33;100.00
38718;BME280;24468;52.128;9.278;2023-06-24T02:41:48;101585.09;;;15.10;100.00
38718;BME280;24468;52.128;9.278;2023-06-24T02:44:15;101590.59;;;15.27;100.00
38718;BME280;24468;52.128;9.278;2023-06-24T02:46:42;101586.94;;;15.09;100.00
38718;BME280;24468;52.128;9.278;2023-06-24T02:49:10;101583.97;;;14.95;100.00
38718;BME280;24468;52.128;9.278;2023-06-24T02:51:38;101595.88;;;14.93;100.00
38718;BME280;24468;52.128;9.278;2023-06-24T02:54:05;101594.31;;;14.87;100.00
38718;BME280;24468;52.128;9.278;2023-06-24T02:56:32;101593.63;;;14.82;100.00
38718;BME280;24468;52.128;9.278;2023-06-24T02:58:57;101596.44;;;14.60;100.00
38718;BME280;24468;52.128;9.278;2023-06-24T03:01:23;101595.81;;;14.74;100.00
38718;BME280;24468;52.128;9.278;2023-06-24T03:03:53;101609.06;;;14.81;100.00
38718;BME280;24468;52.128;9.278;2023-06-24T03:06:19;101606.41;;;14.80;100.00
38718;BME280;24468;52.128;9.278;2023-06-24T03:08:46;101601.63;;;14.85;100.00
38718;BME280;24468;52.128;9.278;2023-06-24T03:11:13;101610.22;;;14.76;100.00
38718;BME280;24468;52.128;9.278;2023-06-24T03:13:39;101609.09;;;14.80;100.00
38718;BME280;24468;52.128;9.278;2023-06-24T03:16:05;101611.78;;;14.81;100.00
38718;BME280;24468;52.128;9.278;2023-06-24T03:18:31;101609.53;;;14.71;100.00
38718;BME280;24468;52.128;9.278;2023-06-24T03:20:56;101618.75;;;14.87;100.00
38718;BME280;24468;52.128;9.278;2023-06-24T03:23:22;101609.22;;;14.97;100.00
38718;BME280;24468;52.128;9.278;2023-06-24T03:25:47;101607.84;;;15.07;100.00
38718;BME280;24468;52.128;9.278;2023-06-24T03:28:13;101608.13;;;15.01;100.00
38718;BME280;24468;52.128;9.278;2023-06-24T03:30:39;101608.72;;;15.08;100.00
38718;BME280;24468;52.128;9.278;2023-06-24T03:33:04;101608.56;;;15.11;100.00
38718;BME280;24468;52.128;9.278;2023-06-24T03:35:31;101609.16;;;14.99;100.00
38718;BME280;24468;52.128;9.278;2023-06-24T03:37:58;101616.28;;;15.01;100.00
38718;BME280;24468;52.128;9.278;2023-06-24T03:40:23;101621.88;;;14.78;100.00
38718;BME280;24468;52.128;9.278;2023-06-24T03:42:49;101627.25;;;14.79;100.00
38718;BME280;24468;52.128;9.278;2023-06-24T03:45:14;101628.25;;;14.97;100.00
38718;BME280;24468;52.128;9.278;2023-06-24T03:47:40;101629.19;;;14.96;100.00
38718;BME280;24468;52.128;9.278;2023-06-24T03:50:06;101625.19;;;15.05;100.00
38718;BME280;24468;52.128;9.278;2023-06-24T03:52:32;101631.19;;;14.93;100.00
38718;BME280;24468;52.128;9.278;2023-06-24T03:54:57;101623.44;;;15.04;100.00
38718;BME280;24468;52.128;9.278;2023-06-24T03:57:23;101628.75;;;14.66;100.00
38718;BME280;24468;52.128;9.278;2023-06-24T03:59:48;101619.78;;;14.84;100.00
38718;BME280;24468;52.128;9.278;2023-06-24T04:02:14;101624.41;;;14.82;100.00
38718;BME280;24468;52.128;9.278;2023-06-24T04:04:39;101624.00;;;15.10;100.00
38718;BME280;24468;52.128;9.278;2023-06-24T04:07:05;101624.84;;;15.12;100.00
38718;BME280;24468;52.128;9.278;2023-06-24T04:09:34;101626.69;;;14.92;100.00
38718;BME280;24468;52.128;9.278;2023-06-24T04:12:01;101617.38;;;14.97;100.00
38718;BME280;24468;52.128;9.278;2023-06-24T04:14:27;101612.44;;;14.86;100.00
38718;BME280;24468;52.128;9.278;2023-06-24T04:16:52;101623.31;;;14.86;100.00
38718;BME280;24468;52.128;9.278;2023-06-24T04:19:18;101615.56;;;14.98;100.00
38718;BME280;24468;52.128;9.278;2023-06-24T04:21:43;101618.31;;;15.17;100.00
38718;BME280;24468;52.128;9.278;2023-06-24T04:24:09;101620.28;;;15.13;100.00
38718;BME280;24468;52.128;9.278;2023-06-24T04:26:34;101621.41;;;15.28;100.00
38718;BME280;24468;52.128;9.278;2023-06-24T04:29:00;101618.47;;;15.32;100.00
38718;BME280;24468;52.128;9.278;2023-06-24T04:31:25;101612.97;;;15.34;100.00
38718;BME280;24468;52.128;9.278;2023-06-24T04:33:53;101620.28;;;15.32;100.00
38718;BME280;24468;52.128;9.278;2023-06-24T04:36:19;101614.41;;;15.60;100.00
38718;BME280;24468;52.128;9.278;2023-06-24T04:38:44;101614.97;;;15.68;100.00
38718;BME280;24468;52.128;9.278;2023-06-24T04:41:10;101613.72;;;15.75;100.00
38718;BME280;24468;52.128;9.278;2023-06-24T04:43:35;101617.44;;;15.92;100.00
38718;BME280;24468;52.128;9.278;2023-06-24T04:46:01;101623.94;;;16.07;100.00
38718;BME280;24468;52.128;9.278;2023-06-24T04:48:27;101626.13;;;16.00;100.00
38718;BME280;24468;52.128;9.278;2023-06-24T04:50:53;101628.63;;;16.22;100.00
38718;BME280;24468;52.128;9.278;2023-06-24T04:53:20;101615.53;;;15.94;100.00
38718;BME280;24468;52.128;9.278;2023-06-24T04:55:46;101627.47;;;15.72;100.00
38718;BME280;24468;52.128;9.278;2023-06-24T04:58:12;101632.09;;;15.89;100.00
38718;BME280;24468;52.128;9.278;2023-06-24T05:00:37;101631.84;;;16.13;100.00
38718;BME280;24468;52.128;9.278;2023-06-24T05:03:03;101628.75;;;16.38;100.00
38718;BME280;24468;52.128;9.278;2023-06-24T05:05:29;101632.81;;;16.29;100.00
38718;BME280;24468;52.128;9.278;2023-06-24T05:07:54;101636.84;;;16.74;100.00
38718;BME280;24468;52.128;9.278;2023-06-24T05:10:20;101629.31;;;16.97;100.00
38718;BME280;24468;52.128;9.278;2023-06-24T05:12:45;101635.09;;;17.24;100.00
38718;BME280;24468;52.128;9.278;2023-06-24T05:15:11;101629.00;;;17.36;100.00
38718;BME280;24468;52.128;9.278;2023-06-24T05:17:36;101620.50;;;18.06;100.00
38718;BME280;24468;52.128;9.278;2023-06-24T05:20:02;101616.81;;;17.91;100.00
38718;BME280;24468;52.128;9.278;2023-06-24T05:22:28;101618.88;;;17.70;100.00
38718;BME280;24468;52.128;9.278;2023-06-24T05:24:54;101624.09;;;17.74;100.00
38718;BME280;24468;52.128;9.278;2023-06-24T05:27:20;101620.69;;;17.87;100.00
38718;BME280;24468;52.128;9.278;2023-06-24T05:29:45;101621.03;;;17.96;100.00
38718;BME280;24468;52.128;9.278;2023-06-24T05:32:11;101617.84;;;18.50;100.00
38718;BME280;24468;52.128;9.278;2023-06-24T05:34:36;101622.88;;;18.42;100.00
38718;BME280;24468;52.128;9.278;2023-06-24T05:37:02;101621.78;;;18.14;100.00
38718;BME280;24468;52.128;9.278;2023-06-24T05:39:28;101633.72;;;17.82;100.00
38718;BME280;24468;52.128;9.278;2023-06-24T05:41:53;101634.50;;;17.99;100.00
38718;BME280;24468;52.128;9.278;2023-06-24T05:44:20;101636.88;;;18.21;100.00
38718;BME280;24468;52.128;9.278;2023-06-24T05:46:45;101626.25;;;18.31;100.00
38718;BME280;24468;52.128;9.278;2023-06-24T05:49:11;101622.88;;;18.42;100.00
38718;BME280;24468;52.128;9.278;2023-06-24T05:51:37;101625.38;;;18.31;100.00
38718;BME280;24468;52.128;9.278;2023-06-24T05:54:03;101630.59;;;18.19;100.00
38718;BME280;24468;52.128;9.278;2023-06-24T05:56:28;101630.13;;;18.43;100.00
38718;BME280;24468;52.128;9.278;2023-06-24T05:58:55;101624.69;;;18.57;100.00
38718;BME280;24468;52.128;9.278;2023-06-24T06:01:20;101631.63;;;18.79;100.00
38718;BME280;24468;52.128;9.278;2023-06-24T06:03:46;101628.44;;;18.71;100.00
38718;BME280;24468;52.128;9.278;2023-06-24T06:06:11;101627.06;;;18.63;100.00
38718;BME280;24468;52.128;9.278;2023-06-24T06:08:37;101623.69;;;18.44;100.00
38718;BME280;24468;52.128;9.278;2023-06-24T06:11:03;101622.16;;;18.54;100.00
38718;BME280;24468;52.128;9.278;2023-06-24T06:13:29;101614.28;;;18.18;100.00
38718;BME280;24468;52.128;9.278;2023-06-24T06:15:56;101616.50;;;18.27;100.00
38718;BME280;24468;52.128;9.278;2023-06-24T06:18:22;101620.72;;;18.63;100.00
38718;BME280;24468;52.128;9.278;2023-06-24T06:20:49;101623.94;;;18.39;100.00
38718;BME280;24468;52.128;9.278;2023-06-24T06:23:15;101625.19;;;18.64;100.00
38718;BME280;24468;52.128;9.278;2023-06-24T06:25:41;101639.94;;;18.92;100.00
38718;BME280;24468;52.128;9.278;2023-06-24T06:28:06;101641.03;;;19.32;100.00
38718;BME280;24468;52.128;9.278;2023-06-24T06:30:32;101632.44;;;18.95;100.00
38718;BME280;24468;52.128;9.278;2023-06-24T06:32:57;101635.84;;;18.69;100.00
38718;BME280;24468;52.128;9.278;2023-06-24T06:35:23;101630.00;;;19.19;100.00
38718;BME280;24468;52.128;9.278;2023-06-24T06:37:49;101637.81;;;19.11;100.00
38718;BME280;24468;52.128;9.278;2023-06-24T06:40:21;101631.56;;;19.23;100.00
38718;BME280;24468;52.128;9.278;2023-06-24T06:42:47;101628.44;;;19.15;100.00
38718;BME280;24468;52.128;9.278;2023-06-24T06:45:13;101635.56;;;19.03;100.00
38718;BME280;24468;52.128;9.278;2023-06-24T06:47:39;101627.44;;;19.02;100.00
38718;BME280;24468;52.128;9.278;2023-06-24T06:50:05;101617.59;;;19.28;100.00
38718;BME280;24468;52.128;9.278;2023-06-24T06:52:31;101622.19;;;19.27;100.00
38718;BME280;24468;52.128;9.278;2023-06-24T06:54:57;101623.53;;;19.49;100.00
38718;BME280;24468;52.128;9.278;2023-06-24T06:57:23;101617.16;;;19.63;100.00
38718;BME280;24468;52.128;9.278;2023-06-24T06:59:49;101624.78;;;19.58;100.00
38718;BME280;24468;52.128;9.278;2023-06-24T07:02:18;101613.44;;;20.19;100.00
38718;BME280;24468;52.128;9.278;2023-06-24T07:04:44;101605.41;;;20.43;100.00
38718;BME280;24468;52.128;9.278;2023-06-24T07:07:09;101601.09;;;20.27;100.00
38718;BME280;24468;52.128;9.278;2023-06-24T07:09:35;101611.41;;;20.09;100.00
38718;BME280;24468;52.128;9.278;2023-06-24T07:14:27;101614.13;;;20.76;100.00
38718;BME280;24468;52.128;9.278;2023-06-24T07:16:52;101605.38;;;20.96;100.00
38718;BME280;24468;52.128;9.278;2023-06-24T07:19:18;101614.59;;;20.42;100.00
38718;BME280;24468;52.128;9.278;2023-06-24T07:21:43;101619.88;;;19.91;100.00
38718;BME280;24468;52.128;9.278;2023-06-24T07:24:09;101621.00;;;20.16;100.00
38718;BME280;24468;52.128;9.278;2023-06-24T07:26:35;101613.19;;;20.50;100.00
38718;BME280;24468;52.128;9.278;2023-06-24T07:29:00;101609.53;;;20.63;100.00
38718;BME280;24468;52.128;9.278;2023-06-24T07:31:26;101608.66;;;20.36;100.00
38718;BME280;24468;52.128;9.278;2023-06-24T07:33:52;101621.81;;;20.83;100.00
38718;BME280;24468;52.128;9.278;2023-06-24T07:36:17;101622.28;;;21.03;100.00
38718;BME280;24468;52.128;9.278;2023-06-24T07:38:44;101620.63;;;20.87;100.00
38718;BME280;24468;52.128;9.278;2023-06-24T07:41:09;101632.16;;;21.05;100.00
38718;BME280;24468;52.128;9.278;2023-06-24T07:43:35;101617.66;;;21.03;100.00
38718;BME280;24468;52.128;9.278;2023-06-24T07:46:00;101618.09;;;21.36;100.00
38718;BME280;24468;52.128;9.278;2023-06-24T07:48:26;101620.00;;;21.48;100.00
38718;BME280;24468;52.128;9.278;2023-06-24T07:50:51;101622.06;;;21.31;100.00
38718;BME280;24468;52.128;9.278;2023-06-24T07:53:17;101628.22;;;21.48;100.00
38718;BME280;24468;52.128;9.278;2023-06-24T07:55:43;101629.19;;;21.60;100.00
38718;BME280;24468;52.128;9.278;2023-06-24T07:58:08;101622.03;;;21.70;100.00
38718;BME280;24468;52.128;9.278;2023-06-24T08:00:34;101617.69;;;22.39;100.00
38718;BME280;24468;52.128;9.278;2023-06-24T08:03:00;101622.84;;;22.20;100.00
38718;BME280;24468;52.128;9.278;2023-06-24T08:05:25;101623.16;;;22.15;100.00
38718;BME280;24468;52.128;9.278;2023-06-24T08:07:52;101627.16;;;22.11;100.00
38718;BME280;24468;52.128;9.278;2023-06-24T08:10:17;101625.38;;;22.23;100.00
38718;BME280;24468;52.128;9.278;2023-06-24T08:12:43;101618.44;;;22.66;100.00
38718;BME280;24468;52.128;9.278;2023-06-24T08:15:09;101614.13;;;22.26;100.00
38718;BME280;24468;52.128;9.278;2023-06-24T08:17:35;101611.88;;;22.07;100.00
38718;BME280;24468;52.128;9.278;2023-06-24T08:20:02;101607.31;;;21.95;100.00
38718;BME280;24468;52.128;9.278;2023-06-24T08:22:28;101610.00;;;21.84;100.00
38718;BME280;24468;52.128;9.278;2023-06-24T08:24:54;101606.16;;;22.10;100.00
38718;BME280;24468;52.128;9.278;2023-06-24T08:27:19;101603.38;;;22.47;100.00
38718;BME280;24468;52.128;9.278;2023-06-24T08:29:45;101608.34;;;22.18;100.00
38718;BME280;24468;52.128;9.278;2023-06-24T08:32:10;101598.44;;;22.39;100.00
38718;BME280;24468;52.128;9.278;2023-06-24T08:34:36;101605.91;;;23.08;100.00
38718;BME280;24468;52.128;9.278;2023-06-24T08:37:02;101595.91;;;22.60;100.00
38718;BME280;24468;52.128;9.278;2023-06-24T08:39:27;101598.06;;;23.15;100.00
38718;BME280;24468;52.128;9.278;2023-06-24T08:41:53;101592.16;;;23.64;100.00
38718;BME280;24468;52.128;9.278;2023-06-24T08:44:19;101592.47;;;23.93;100.00
38718;BME280;24468;52.128;9.278;2023-06-24T08:46:44;101590.03;;;23.57;100.00
38718;BME280;24468;52.128;9.278;2023-06-24T08:52:25;101591.91;;;23.67;100.00
38718;BME280;24468;52.128;9.278;2023-06-24T08:54:49;101582.78;;;24.10;100.00
38718;BME280;24468;52.128;9.278;2023-06-24T08:57:15;101588.03;;;23.81;100.00
38718;BME280;24468;52.128;9.278;2023-06-24T08:59:42;101589.00;;;23.80;100.00
38718;BME280;24468;52.128;9.278;2023-06-24T09:02:08;101575.50;;;23.55;100.00
38718;BME280;24468;52.128;9.278;2023-06-24T09:04:34;101584.28;;;23.15;100.00
38718;BME280;24468;52.128;9.278;2023-06-24T09:07:00;101590.66;;;23.38;100.00
38718;BME280;24468;52.128;9.278;2023-06-24T09:09:25;101584.78;;;23.76;100.00
38718;BME280;24468;52.128;9.278;2023-06-24T09:11:56;101576.63;;;24.18;100.00
38718;BME280;24468;52.128;9.278;2023-06-24T09:14:27;101575.78;;;24.38;100.00
38718;BME280;24468;52.128;9.278;2023-06-24T09:16:58;101569.22;;;24.93;100.00
38718;BME280;24468;52.128;9.278;2023-06-24T09:19:27;101568.97;;;24.96;100.00
38718;BME280;24468;52.128;9.278;2023-06-24T09:22:01;101556.97;;;24.85;100.00
38718;BME280;24468;52.128;9.278;2023-06-24T09:24:29;101554.97;;;24.88;99.87
38718;BME280;24468;52.128;9.278;2023-06-24T09:26:56;101563.53;;;24.63;100.00
38718;BME280;24468;52.128;9.278;2023-06-24T09:29:32;101551.56;;;25.05;96.79
38718;BME280;24468;52.128;9.278;2023-06-24T09:31:58;101548.13;;;25.43;96.09
38718;BME280;24468;52.128;9.278;2023-06-24T09:34:28;101549.44;;;25.49;93.29
38718;BME280;24468;52.128;9.278;2023-06-24T09:36:57;101554.31;;;25.05;95.77
38718;BME280;24468;52.128;9.278;2023-06-24T09:39:24;101548.84;;;25.45;94.87
38718;BME280;24468;52.128;9.278;2023-06-24T09:41:57;101543.84;;;25.70;93.25
38718;BME280;24468;52.128;9.278;2023-06-24T09:44:25;101541.28;;;25.47;95.48
38718;BME280;24468;52.128;9.278;2023-06-24T09:46:51;101534.81;;;25.78;91.29
38718;BME280;24468;52.128;9.278;2023-06-24T09:49:18;101540.16;;;25.60;91.26
38718;BME280;24468;52.128;9.278;2023-06-24T09:51:47;101535.53;;;25.80;85.86
38718;BME280;24468;52.128;9.278;2023-06-24T09:54:14;101543.69;;;25.21;89.59
38718;BME280;24468;52.128;9.278;2023-06-24T09:56:53;101535.66;;;24.88;90.94
38718;BME280;24468;52.128;9.278;2023-06-24T09:59:20;101534.66;;;25.19;87.66
38718;BME280;24468;52.128;9.278;2023-06-24T10:01:47;101543.53;;;24.71;90.45
38718;BME280;24468;52.128;9.278;2023-06-24T10:04:18;101535.78;;;24.86;91.91
38718;BME280;24468;52.128;9.278;2023-06-24T10:06:44;101538.97;;;25.43;93.68
38718;BME280;24468;52.128;9.278;2023-06-24T10:09:10;101534.13;;;25.35;89.68
38718;BME280;24468;52.128;9.278;2023-06-24T10:11:42;101538.72;;;25.65;87.52
38718;BME280;24468;52.128;9.278;2023-06-24T10:14:07;101534.94;;;25.16;87.38
38718;BME280;24468;52.128;9.278;2023-06-24T10:16:33;101529.31;;;25.27;89.49
38718;BME280;24468;52.128;9.278;2023-06-24T10:19:03;101519.75;;;26.01;88.00
38718;BME280;24468;52.128;9.278;2023-06-24T10:21:54;101516.66;;;26.43;82.75
38718;BME280;24468;52.128;9.278;2023-06-24T10:24:34;101512.75;;;26.36;76.58
38718;BME280;24468;52.128;9.278;2023-06-24T10:27:08;101514.50;;;26.17;76.24
38718;BME280;24468;52.128;9.278;2023-06-24T10:29:37;101509.66;;;26.68;80.21
38718;BME280;24468;52.128;9.278;2023-06-24T10:32:07;101506.69;;;26.89;83.09
38718;BME280;24468;52.128;9.278;2023-06-24T10:39:57;101490.19;;;27.80;73.77
38718;BME280;24468;52.128;9.278;2023-06-24T10:44:50;101499.41;;;26.88;75.48
38718;BME280;24468;52.128;9.278;2023-06-24T10:47:17;101500.34;;;26.40;75.05
38718;BME280;24468;52.128;9.278;2023-06-24T10:49:43;101487.94;;;27.11;73.34
38718;BME280;24468;52.128;9.278;2023-06-24T10:52:12;101487.84;;;26.36;74.81
38718;BME280;24468;52.128;9.278;2023-06-24T10:54:39;101489.75;;;26.92;74.89
38718;BME280;24468;52.128;9.278;2023-06-24T10:57:10;101490.56;;;26.75;73.84
38718;BME280;24468;52.128;9.278;2023-06-24T10:59:47;101484.91;;;26.57;76.54
38718;BME280;24468;52.128;9.278;2023-06-24T11:02:18;101488.03;;;26.81;72.55
38718;BME280;24468;52.128;9.278;2023-06-24T11:04:55;101479.47;;;27.12;71.00
38718;BME280;24468;52.128;9.278;2023-06-24T11:07:23;101470.09;;;27.50;67.38
38718;BME280;24468;52.128;9.278;2023-06-24T11:09:55;101465.88;;;27.92;68.16
38718;BME280;24468;52.128;9.278;2023-06-24T11:12:25;101463.81;;;27.31;71.88
38718;BME280;24468;52.128;9.278;2023-06-24T11:14:58;101471.94;;;27.78;70.72
38718;BME280;24468;52.128;9.278;2023-06-24T11:17:25;101463.38;;;27.71;70.05
38718;BME280;24468;52.128;9.278;2023-06-24T11:19:56;101467.22;;;28.06;67.46
38718;BME280;24468;52.128;9.278;2023-06-24T11:22:24;101466.59;;;28.56;64.08
38718;BME280;24468;52.128;9.278;2023-06-24T11:24:50;101458.84;;;28.42;62.21
38718;BME280;24468;52.128;9.278;2023-06-24T11:27:15;101462.81;;;28.39;64.15
38718;BME280;24468;52.128;9.278;2023-06-24T11:29:41;101464.81;;;28.47;64.34
38718;BME280;24468;52.128;9.278;2023-06-24T11:32:08;101456.75;;;28.62;64.11
38718;BME280;24468;52.128;9.278;2023-06-24T11:34:35;101464.19;;;28.17;63.15
38718;BME280;24468;52.128;9.278;2023-06-24T11:37:12;101461.81;;;28.22;61.30
38718;BME280;24468;52.128;9.278;2023-06-24T11:39:38;101453.69;;;28.73;62.30
38718;BME280;24468;52.128;9.278;2023-06-24T11:42:06;101452.81;;;28.46;62.90
38718;BME280;24468;52.128;9.278;2023-06-24T11:44:41;101444.69;;;28.79;62.45
38718;BME280;24468;52.128;9.278;2023-06-24T11:47:09;101436.16;;;28.72;61.22
38718;BME280;24468;52.128;9.278;2023-06-24T11:49:52;101439.41;;;28.94;57.89
38718;BME280;24468;52.128;9.278;2023-06-24T11:52:18;101435.09;;;28.21;62.40
38718;BME280;24468;52.128;9.278;2023-06-24T11:54:44;101428.72;;;28.47;63.63
38718;BME280;24468;52.128;9.278;2023-06-24T11:57:10;101441.94;;;28.53;61.97
38718;BME280;24468;52.128;9.278;2023-06-24T11:59:35;101440.28;;;27.80;62.68
38718;BME280;24468;52.128;9.278;2023-06-24T12:02:01;101438.63;;;26.87;64.97
38718;BME280;24468;52.128;9.278;2023-06-24T12:04:30;101428.00;;;28.27;61.83
38718;BME280;24468;52.128;9.278;2023-06-24T12:06:57;101411.69;;;28.76;60.91
38718;BME280;24468;52.128;9.278;2023-06-24T12:09:23;101422.50;;;29.13;59.25
38718;BME280;24468;52.128;9.278;2023-06-24T12:11:49;101420.66;;;29.38;58.88
38718;BME280;24468;52.128;9.278;2023-06-24T12:14:15;101419.94;;;29.36;58.60
38718;BME280;24468;52.128;9.278;2023-06-24T12:16:41;101421.31;;;28.37;63.23
38718;BME280;24468;52.128;9.278;2023-06-24T12:19:07;101423.03;;;28.30;62.78
38718;BME280;24468;52.128;9.278;2023-06-24T12:21:34;101419.75;;;27.91;64.99
38718;BME280;24468;52.128;9.278;2023-06-24T12:24:00;101417.66;;;27.21;67.92
38718;BME280;24468;52.128;9.278;2023-06-24T12:26:25;101418.53;;;27.58;66.79
38718;BME280;24468;52.128;9.278;2023-06-24T12:28:54;101427.47;;;27.06;63.19
38718;BME280;24468;52.128;9.278;2023-06-24T12:31:20;101422.84;;;27.70;64.07
38718;BME280;24468;52.128;9.278;2023-06-24T12:33:46;101419.53;;;27.84;61.79
38718;BME280;24468;52.128;9.278;2023-06-24T12:36:11;101419.31;;;28.22;61.59
38718;BME280;24468;52.128;9.278;2023-06-24T12:38:37;101421.66;;;28.52;61.25
38718;BME280;24468;52.128;9.278;2023-06-24T12:41:02;101411.88;;;28.48;59.07
38718;BME280;24468;52.128;9.278;2023-06-24T12:43:28;101419.44;;;28.98;57.25
38718;BME280;24468;52.128;9.278;2023-06-24T12:45:53;101425.25;;;28.45;61.30
38718;BME280;24468;52.128;9.278;2023-06-24T12:48:19;101413.00;;;28.11;60.75
38718;BME280;24468;52.128;9.278;2023-06-24T12:50:44;101410.34;;;28.28;60.46
38718;BME280;24468;52.128;9.278;2023-06-24T12:53:10;101414.53;;;28.50;60.86
38718;BME280;24468;52.128;9.278;2023-06-24T12:55:36;101409.28;;;29.15;59.05
38718;BME280;24468;52.128;9.278;2023-06-24T12:58:02;101412.00;;;28.65;59.48
38718;BME280;24468;52.128;9.278;2023-06-24T13:00:27;101417.44;;;27.86;58.87
38718;BME280;24468;52.128;9.278;2023-06-24T13:02:53;101404.84;;;27.74;63.66
38718;BME280;24468;52.128;9.278;2023-06-24T13:05:19;101407.00;;;27.62;63.33
38718;BME280;24468;52.128;9.278;2023-06-24T13:07:44;101402.97;;;27.92;62.08
38718;BME280;24468;52.128;9.278;2023-06-24T13:10:10;101409.22;;;28.38;59.48